createdAt,value
2018-06-30T00:00:08.849Z,1010.4847
2018-06-30T00:00:20.604Z,1010.525
2018-06-30T00:00:32.355Z,1010.5165
2018-06-30T00:00:44.089Z,1010.5563
2018-06-30T00:00:55.850Z,1010.5122
2018-06-30T00:01:07.619Z,1010.5239
2018-06-30T00:01:18.409Z,1010.5367
2018-06-30T00:01:30.172Z,1010.5203
2018-06-30T00:01:41.929Z,1010.5086
2018-06-30T00:01:52.668Z,1010.5068
2018-06-30T00:02:04.434Z,1010.5159
2018-06-30T00:02:16.194Z,1010.5287
2018-06-30T00:02:27.943Z,1010.5628
2018-06-30T00:02:39.689Z,1010.5531
2018-06-30T00:02:51.485Z,1010.5521
2018-06-30T00:03:03.236Z,1010.5331
2018-06-30T00:03:14.981Z,1010.52
2018-06-30T00:03:26.739Z,1010.5347
2018-06-30T00:03:38.508Z,1010.5129
2018-06-30T00:03:50.253Z,1010.5502
2018-06-30T00:04:01.001Z,1010.5328
2018-06-30T00:04:12.743Z,1010.5211
2018-06-30T00:04:24.496Z,1010.4916
2018-06-30T00:04:35.280Z,1010.5244
2018-06-30T00:04:47.054Z,1010.512
2018-06-30T00:04:58.810Z,1010.5429
2018-06-30T00:05:10.584Z,1010.5204
2018-06-30T00:05:21.340Z,1010.5064
2018-06-30T00:05:33.101Z,1010.4963
2018-06-30T00:05:44.836Z,1010.4876
2018-06-30T00:05:56.582Z,1010.4896
2018-06-30T00:06:08.354Z,1010.4937
2018-06-30T00:06:20.152Z,1010.5161
2018-06-30T00:06:31.888Z,1010.4946
2018-06-30T00:06:43.633Z,1010.5087
2018-06-30T00:06:55.377Z,1010.5007
2018-06-30T00:07:06.127Z,1010.5429
2018-06-30T00:07:17.881Z,1010.5128
2018-06-30T00:07:29.632Z,1010.5204
2018-06-30T00:07:41.417Z,1010.5305
2018-06-30T00:07:53.146Z,1010.5365
2018-06-30T00:08:04.926Z,1010.5154
2018-06-30T00:08:16.686Z,1010.4639
2018-06-30T00:08:28.444Z,1010.5108
2018-06-30T00:08:40.190Z,1010.501
2018-06-30T00:08:51.960Z,1010.5505
2018-06-30T00:09:02.724Z,1010.5339
2018-06-30T00:09:14.467Z,1010.5265
2018-06-30T00:09:26.226Z,1010.5382
2018-06-30T00:09:36.973Z,1010.5596
2018-06-30T00:09:48.723Z,1010.5148
2018-06-30T00:10:00.478Z,1010.559
2018-06-30T00:10:12.240Z,1010.5516
2018-06-30T00:10:24.027Z,1010.5901
2018-06-30T00:10:34.730Z,1010.5141
2018-06-30T00:10:46.493Z,1010.5516
2018-06-30T00:10:57.237Z,1010.5673
2018-06-30T00:11:09.003Z,1010.5851
2018-06-30T00:11:19.755Z,1010.6091
2018-06-30T00:11:31.535Z,1010.5593
2018-06-30T00:11:42.284Z,1010.5778
2018-06-30T00:11:54.052Z,1010.5928
2018-06-30T00:12:04.804Z,1010.5704
2018-06-30T00:12:16.553Z,1010.552
2018-06-30T00:12:28.282Z,1010.5647
2018-06-30T00:12:40.055Z,1010.5349
2018-06-30T00:12:51.831Z,1010.5417
2018-06-30T00:13:03.601Z,1010.5413
2018-06-30T00:13:15.359Z,1010.5711
2018-06-30T00:13:27.118Z,1010.5778
2018-06-30T00:13:37.870Z,1010.5115
2018-06-30T00:13:49.644Z,1010.556
2018-06-30T00:14:00.399Z,1010.5689
2018-06-30T00:14:11.142Z,1010.5293
2018-06-30T00:14:22.888Z,1010.5628
2018-06-30T00:14:33.634Z,1010.5443
2018-06-30T00:14:45.419Z,1010.5595
2018-06-30T00:14:57.207Z,1010.5443
2018-06-30T00:15:07.997Z,1010.5527
2018-06-30T00:15:19.731Z,1010.533
2018-06-30T00:15:31.504Z,1010.5142
2018-06-30T00:15:43.251Z,1010.5397
2018-06-30T00:15:54.997Z,1010.5186
2018-06-30T00:16:06.751Z,1010.527
2018-06-30T00:16:18.500Z,1010.5153
2018-06-30T00:16:29.267Z,1010.4949
2018-06-30T00:16:41.013Z,1010.5645
2018-06-30T00:16:52.753Z,1010.5039
2018-06-30T00:17:04.521Z,1010.5097
2018-06-30T00:17:16.275Z,1010.5136
2018-06-30T00:17:27.018Z,1010.5625
2018-06-30T00:17:38.780Z,1010.5706
2018-06-30T00:17:50.532Z,1010.5296
2018-06-30T00:18:02.317Z,1010.4765
2018-06-30T00:18:14.071Z,1010.5246
2018-06-30T00:18:25.891Z,1010.4956
2018-06-30T00:18:37.623Z,1010.5136
2018-06-30T00:18:49.401Z,1010.5246
2018-06-30T00:19:01.156Z,1010.51
2018-06-30T00:19:12.922Z,1010.525
2018-06-30T00:19:24.670Z,1010.5129
2018-06-30T00:19:36.429Z,1010.4838
2018-06-30T00:19:48.176Z,1010.5407
2018-06-30T00:19:59.939Z,1010.5257
2018-06-30T00:20:11.703Z,1010.4932
2018-06-30T00:20:23.464Z,1010.51
2018-06-30T00:20:35.219Z,1010.4876
2018-06-30T00:20:46.973Z,1010.5324
2018-06-30T00:20:56.728Z,1010.5161
2018-06-30T00:21:08.471Z,1010.4926
2018-06-30T00:21:20.231Z,1010.506
2018-06-30T00:21:31.992Z,1010.4792
2018-06-30T00:21:43.756Z,1010.5073
2018-06-30T00:21:55.532Z,1010.51
2018-06-30T00:22:07.268Z,1010.5073
2018-06-30T00:22:19.012Z,1010.4949
2018-06-30T00:22:30.783Z,1010.4982
2018-06-30T00:22:42.553Z,1010.5167
2018-06-30T00:22:54.304Z,1010.5133
2018-06-30T00:23:06.066Z,1010.4902
2018-06-30T00:23:17.817Z,1010.4792
2018-06-30T00:23:29.575Z,1010.487
2018-06-30T00:23:41.335Z,1010.4709
2018-06-30T00:23:53.112Z,1010.4735
2018-06-30T00:24:04.875Z,1010.4601
2018-06-30T00:24:15.630Z,1010.4712
2018-06-30T00:24:27.414Z,1010.492
2018-06-30T00:24:39.165Z,1010.4678
2018-06-30T00:24:50.944Z,1010.4321
2018-06-30T00:25:02.686Z,1010.4896
2018-06-30T00:25:13.446Z,1010.4756
2018-06-30T00:25:25.208Z,1010.4726
2018-06-30T00:25:36.999Z,1010.4689
2018-06-30T00:25:48.757Z,1010.4533
2018-06-30T00:26:00.503Z,1010.4659
2018-06-30T00:26:12.281Z,1010.4569
2018-06-30T00:26:24.019Z,1010.4067
2018-06-30T00:26:35.768Z,1010.4067
2018-06-30T00:26:47.521Z,1010.4227
2018-06-30T00:26:59.268Z,1010.4137
2018-06-30T00:27:11.029Z,1010.4629
2018-06-30T00:27:22.769Z,1010.4232
2018-06-30T00:27:34.541Z,1010.4081
2018-06-30T00:27:46.291Z,1010.4382
2018-06-30T00:27:58.031Z,1010.4516
2018-06-30T00:28:09.783Z,1010.4459
2018-06-30T00:28:21.541Z,1010.4728
2018-06-30T00:28:33.316Z,1010.4191
2018-06-30T00:28:45.107Z,1010.4895
2018-06-30T00:28:56.874Z,1010.4429
2018-06-30T00:29:08.634Z,1010.453
2018-06-30T00:29:20.386Z,1010.4553
2018-06-30T00:29:32.133Z,1010.4306
2018-06-30T00:29:42.872Z,1010.4396
2018-06-30T00:29:52.614Z,1010.4346
2018-06-30T00:30:04.369Z,1010.455
2018-06-30T00:30:15.120Z,1010.4105
2018-06-30T00:30:26.872Z,1010.4306
2018-06-30T00:30:37.646Z,1010.4567
2018-06-30T00:30:48.379Z,1010.4048
2018-06-30T00:31:00.132Z,1010.4701
2018-06-30T00:31:10.882Z,1010.4985
2018-06-30T00:31:22.625Z,1010.4206
2018-06-30T00:31:34.373Z,1010.4595
2018-06-30T00:31:45.122Z,1010.4657
2018-06-30T00:31:56.883Z,1010.4288
2018-06-30T00:32:08.642Z,1010.4953
2018-06-30T00:32:20.397Z,1010.5076
2018-06-30T00:32:32.151Z,1010.4745
2018-06-30T00:32:43.898Z,1010.4751
2018-06-30T00:32:54.658Z,1010.5059
2018-06-30T00:33:06.424Z,1010.459
2018-06-30T00:33:16.182Z,1010.512
2018-06-30T00:33:27.925Z,1010.452
2018-06-30T00:33:39.695Z,1010.4096
2018-06-30T00:33:51.450Z,1010.4768
2018-06-30T00:34:03.208Z,1010.452
2018-06-30T00:34:13.955Z,1010.4651
2018-06-30T00:34:24.705Z,1010.3995
2018-06-30T00:34:35.471Z,1010.4689
2018-06-30T00:34:46.217Z,1010.4431
2018-06-30T00:34:57.961Z,1010.4364
2018-06-30T00:35:09.710Z,1010.4567
2018-06-30T00:35:20.461Z,1010.4822
2018-06-30T00:35:32.228Z,1010.4715
2018-06-30T00:35:44.983Z,1010.4738
2018-06-30T00:35:56.752Z,1010.5017
2018-06-30T00:36:08.490Z,1010.5117
2018-06-30T00:36:20.232Z,1010.447
2018-06-30T00:36:29.990Z,1010.4554
2018-06-30T00:36:41.768Z,1010.4872
2018-06-30T00:36:53.530Z,1010.4725
2018-06-30T00:37:05.304Z,1010.4698
2018-06-30T00:37:17.047Z,1010.427
2018-06-30T00:37:28.817Z,1010.4785
2018-06-30T00:37:40.586Z,1010.4588
2018-06-30T00:37:52.337Z,1010.4333
2018-06-30T00:38:04.096Z,1010.4838
2018-06-30T00:38:15.854Z,1010.4487
2018-06-30T00:38:27.616Z,1010.4537
2018-06-30T00:38:38.355Z,1010.4296
2018-06-30T00:38:50.100Z,1010.4437
2018-06-30T00:39:01.858Z,1010.4346
2018-06-30T00:39:13.635Z,1010.3872
2018-06-30T00:39:25.400Z,1010.3869
2018-06-30T00:39:36.151Z,1010.4374
2018-06-30T00:39:47.897Z,1010.4307
2018-06-30T00:39:59.657Z,1010.3593
2018-06-30T00:40:11.408Z,1010.3731
2018-06-30T00:40:23.205Z,1010.4548
2018-06-30T00:40:33.978Z,1010.3848
2018-06-30T00:40:43.722Z,1010.4636
2018-06-30T00:40:55.470Z,1010.3581
2018-06-30T00:41:05.211Z,1010.4026
2018-06-30T00:41:16.973Z,1010.4284
2018-06-30T00:41:28.715Z,1010.436
2018-06-30T00:41:40.514Z,1010.4548
2018-06-30T00:41:51.209Z,1010.422
2018-06-30T00:42:02.995Z,1010.3996
2018-06-30T00:42:14.747Z,1010.3839
2018-06-30T00:42:26.508Z,1010.423
2018-06-30T00:42:38.277Z,1010.3889
2018-06-30T00:42:50.040Z,1010.4149
2018-06-30T00:43:00.777Z,1010.4224
2018-06-30T00:43:12.529Z,1010.4486
2018-06-30T00:43:23.276Z,1010.3665
2018-06-30T00:43:35.019Z,1010.4149
2018-06-30T00:43:46.821Z,1010.405
2018-06-30T00:43:58.577Z,1010.4006
2018-06-30T00:44:10.349Z,1010.4167
2018-06-30T00:44:21.109Z,1010.4207
2018-06-30T00:44:31.855Z,1010.4659
2018-06-30T00:44:43.644Z,1010.4084
2018-06-30T00:44:55.392Z,1010.4284
2018-06-30T00:45:07.151Z,1010.4277
2018-06-30T00:45:18.925Z,1010.4257
2018-06-30T00:45:30.675Z,1010.4334
2018-06-30T00:45:42.439Z,1010.4318
2018-06-30T00:45:54.181Z,1010.4562
2018-06-30T00:46:05.935Z,1010.4569
2018-06-30T00:46:17.694Z,1010.4653
2018-06-30T00:46:29.438Z,1010.4568
2018-06-30T00:46:41.193Z,1010.4389
2018-06-30T00:46:51.947Z,1010.4552
2018-06-30T00:47:03.697Z,1010.4361
2018-06-30T00:47:15.456Z,1010.407
2018-06-30T00:47:26.250Z,1010.4221
2018-06-30T00:47:38.038Z,1010.4237
2018-06-30T00:47:49.785Z,1010.4439
2018-06-30T00:47:59.537Z,1010.4629
2018-06-30T00:48:11.289Z,1010.4462
2018-06-30T00:48:23.047Z,1010.4365
2018-06-30T00:48:34.824Z,1010.4533
2018-06-30T00:48:46.556Z,1010.4382
2018-06-30T00:48:57.303Z,1010.4087
2018-06-30T00:49:09.102Z,1010.4767
2018-06-30T00:49:21.820Z,1010.4308
2018-06-30T00:49:33.576Z,1010.4382
2018-06-30T00:49:45.333Z,1010.4324
2018-06-30T00:49:57.087Z,1010.4385
2018-06-30T00:50:07.838Z,1010.4224
2018-06-30T00:50:18.585Z,1010.4398
2018-06-30T00:50:30.345Z,1010.4402
2018-06-30T00:50:41.099Z,1010.4419
2018-06-30T00:50:51.890Z,1010.4515
2018-06-30T00:51:03.629Z,1010.4177
2018-06-30T00:51:15.395Z,1010.4235
2018-06-30T00:51:27.142Z,1010.4737
2018-06-30T00:51:38.909Z,1010.4653
2018-06-30T00:51:50.661Z,1010.4827
2018-06-30T00:52:02.454Z,1010.467
2018-06-30T00:52:14.243Z,1010.4396
2018-06-30T00:52:25.987Z,1010.4321
2018-06-30T00:52:37.732Z,1010.4406
2018-06-30T00:52:48.501Z,1010.4372
2018-06-30T00:52:59.265Z,1010.4453
2018-06-30T00:53:11.030Z,1010.4469
2018-06-30T00:53:22.753Z,1010.4603
2018-06-30T00:53:34.559Z,1010.4245
2018-06-30T00:53:46.285Z,1010.4573
2018-06-30T00:53:57.048Z,1010.4696
2018-06-30T00:54:08.810Z,1010.4707
2018-06-30T00:54:20.550Z,1010.4971
2018-06-30T00:54:32.295Z,1010.4634
2018-06-30T00:54:44.059Z,1010.4891
2018-06-30T00:54:55.814Z,1010.473
2018-06-30T00:55:07.575Z,1010.46
2018-06-30T00:55:18.368Z,1010.4345
2018-06-30T00:55:30.102Z,1010.4516
2018-06-30T00:55:40.864Z,1010.5192
2018-06-30T00:55:52.645Z,1010.4724
2018-06-30T00:56:04.405Z,1010.4646
2018-06-30T00:56:15.154Z,1010.4567
2018-06-30T00:56:26.900Z,1010.4366
2018-06-30T00:56:38.666Z,1010.4626
2018-06-30T00:56:50.412Z,1010.4473
2018-06-30T00:57:02.175Z,1010.4379
2018-06-30T00:57:13.926Z,1010.4684
2018-06-30T00:57:25.673Z,1010.4473
2018-06-30T00:57:37.433Z,1010.4409
2018-06-30T00:57:49.168Z,1010.4392
2018-06-30T00:58:00.927Z,1010.465
2018-06-30T00:58:12.676Z,1010.4101
2018-06-30T00:58:24.464Z,1010.4118
2018-06-30T00:58:35.217Z,1010.4543
2018-06-30T00:58:46.972Z,1010.4332
2018-06-30T00:58:57.711Z,1010.4611
2018-06-30T00:59:09.468Z,1010.4259
2018-06-30T00:59:21.225Z,1010.437
2018-06-30T00:59:32.995Z,1010.4466
2018-06-30T00:59:42.743Z,1010.4382
2018-06-30T00:59:53.511Z,1010.4583
2018-06-30T01:00:05.245Z,1010.4603
2018-06-30T01:00:16.995Z,1010.4494
2018-06-30T01:00:28.755Z,1010.4443
2018-06-30T01:00:39.499Z,1010.442
2018-06-30T01:00:51.265Z,1010.4677
2018-06-30T01:01:02.013Z,1010.4343
2018-06-30T01:01:13.765Z,1010.4573
2018-06-30T01:01:25.527Z,1010.4526
2018-06-30T01:01:38.266Z,1010.4506
2018-06-30T01:01:50.043Z,1010.4466
2018-06-30T01:02:01.800Z,1010.4466
2018-06-30T01:02:13.571Z,1010.4389
2018-06-30T01:02:25.325Z,1010.4576
2018-06-30T01:02:36.065Z,1010.4443
2018-06-30T01:02:47.815Z,1010.4509
2018-06-30T01:02:58.583Z,1010.4543
2018-06-30T01:03:09.341Z,1010.4335
2018-06-30T01:03:20.085Z,1010.4335
2018-06-30T01:03:31.832Z,1010.4787
2018-06-30T01:03:43.572Z,1010.4687
2018-06-30T01:03:55.326Z,1010.457
2018-06-30T01:04:06.081Z,1010.4486
2018-06-30T01:04:17.860Z,1010.4653
2018-06-30T01:04:29.607Z,1010.4671
2018-06-30T01:04:41.367Z,1010.4459
2018-06-30T01:04:53.112Z,1010.4754
2018-06-30T01:05:04.885Z,1010.4627
2018-06-30T01:05:15.625Z,1010.4611
2018-06-30T01:05:27.380Z,1010.4971
2018-06-30T01:05:39.169Z,1010.4885
2018-06-30T01:05:50.933Z,1010.4827
2018-06-30T01:06:02.709Z,1010.4861
2018-06-30T01:06:14.458Z,1010.5106
2018-06-30T01:06:26.228Z,1010.4611
2018-06-30T01:06:37.971Z,1010.4838
2018-06-30T01:06:49.732Z,1010.4821
2018-06-30T01:07:02.468Z,1010.4898
2018-06-30T01:07:14.204Z,1010.4597
2018-06-30T01:07:26.949Z,1010.4904
2018-06-30T01:07:38.717Z,1010.4861
2018-06-30T01:07:50.473Z,1010.4787
2018-06-30T01:08:02.233Z,1010.4671
2018-06-30T01:08:12.985Z,1010.4447
2018-06-30T01:08:24.735Z,1010.466
2018-06-30T01:08:36.499Z,1010.4587
2018-06-30T01:08:46.256Z,1010.4885
2018-06-30T01:08:58.004Z,1010.4486
2018-06-30T01:09:09.759Z,1010.4403
2018-06-30T01:09:21.517Z,1010.4453
2018-06-30T01:09:33.265Z,1010.4721
2018-06-30T01:09:45.034Z,1010.4827
2018-06-30T01:09:54.759Z,1010.462
2018-06-30T01:10:06.510Z,1010.5028
2018-06-30T01:10:17.258Z,1010.4985
2018-06-30T01:10:29.009Z,1010.4526
2018-06-30T01:10:40.745Z,1010.4904
2018-06-30T01:10:52.502Z,1010.4935
2018-06-30T01:11:04.248Z,1010.5055
2018-06-30T01:11:16.024Z,1010.4681
2018-06-30T01:11:27.784Z,1010.4954
2018-06-30T01:11:39.562Z,1010.4714
2018-06-30T01:11:51.339Z,1010.453
2018-06-30T01:12:02.108Z,1010.4362
2018-06-30T01:12:12.851Z,1010.4677
2018-06-30T01:12:24.597Z,1010.4597
2018-06-30T01:12:34.344Z,1010.4647
2018-06-30T01:12:46.088Z,1010.481
2018-06-30T01:12:57.866Z,1010.4895
2018-06-30T01:13:09.608Z,1010.4777
2018-06-30T01:13:20.363Z,1010.4915
2018-06-30T01:13:31.113Z,1010.4754
2018-06-30T01:13:42.858Z,1010.4694
2018-06-30T01:13:54.608Z,1010.4631
2018-06-30T01:14:05.350Z,1010.4671
2018-06-30T01:14:17.125Z,1010.4737
2018-06-30T01:14:28.876Z,1010.5273
2018-06-30T01:14:40.643Z,1010.4787
2018-06-30T01:14:52.398Z,1010.4754
2018-06-30T01:15:04.168Z,1010.4731
2018-06-30T01:15:15.917Z,1010.4731
2018-06-30T01:15:26.666Z,1010.4898
2018-06-30T01:15:38.408Z,1010.4597
2018-06-30T01:15:49.149Z,1010.4724
2018-06-30T01:15:59.899Z,1010.4664
2018-06-30T01:16:10.661Z,1010.4815
2018-06-30T01:16:21.420Z,1010.4798
2018-06-30T01:16:32.176Z,1010.5078
2018-06-30T01:16:43.933Z,1010.5049
2018-06-30T01:16:55.681Z,1010.4848
2018-06-30T01:17:07.445Z,1010.4854
2018-06-30T01:17:19.201Z,1010.4737
2018-06-30T01:17:28.935Z,1010.4741
2018-06-30T01:17:40.682Z,1010.4854
2018-06-30T01:17:52.442Z,1010.4904
2018-06-30T01:18:04.235Z,1010.5039
2018-06-30T01:18:15.995Z,1010.4999
2018-06-30T01:18:27.773Z,1010.4865
2018-06-30T01:18:39.504Z,1010.5009
2018-06-30T01:18:51.290Z,1010.5042
2018-06-30T01:19:03.020Z,1010.4818
2018-06-30T01:19:14.776Z,1010.4781
2018-06-30T01:19:26.521Z,1010.455
2018-06-30T01:19:38.316Z,1010.5009
2018-06-30T01:19:50.071Z,1010.5009
2018-06-30T01:20:00.840Z,1010.4885
2018-06-30T01:20:12.596Z,1010.4707
2018-06-30T01:20:24.339Z,1010.4734
2018-06-30T01:20:36.092Z,1010.4611
2018-06-30T01:20:48.846Z,1010.4687
2018-06-30T01:21:00.612Z,1010.4929
2018-06-30T01:21:11.364Z,1010.5012
2018-06-30T01:21:22.124Z,1010.4761
2018-06-30T01:21:33.865Z,1010.471
2018-06-30T01:21:45.633Z,1010.466
2018-06-30T01:21:57.378Z,1010.471
2018-06-30T01:22:09.147Z,1010.4353
2018-06-30T01:22:20.903Z,1010.4952
2018-06-30T01:22:32.667Z,1010.457
2018-06-30T01:22:44.414Z,1010.4888
2018-06-30T01:22:55.174Z,1010.4704
2018-06-30T01:23:06.947Z,1010.4553
2018-06-30T01:23:17.713Z,1010.4804
2018-06-30T01:23:29.463Z,1010.4414
2018-06-30T01:23:41.246Z,1010.4877
2018-06-30T01:23:53.007Z,1010.4514
2018-06-30T01:24:04.791Z,1010.4832
2018-06-30T01:24:16.528Z,1010.441
2018-06-30T01:24:28.279Z,1010.4631
2018-06-30T01:24:40.036Z,1010.471
2018-06-30T01:24:51.788Z,1010.441
2018-06-30T01:25:03.538Z,1010.4915
2018-06-30T01:25:15.306Z,1010.4594
2018-06-30T01:25:27.041Z,1010.4527
2018-06-30T01:25:37.798Z,1010.4704
2018-06-30T01:25:49.541Z,1010.4871
2018-06-30T01:26:01.292Z,1010.5089
2018-06-30T01:26:13.040Z,1010.4965
2018-06-30T01:26:23.796Z,1010.4704
2018-06-30T01:26:35.549Z,1010.4664
2018-06-30T01:26:47.304Z,1010.4795
2018-06-30T01:26:59.071Z,1010.4882
2018-06-30T01:27:09.816Z,1010.4838
2018-06-30T01:27:21.580Z,1010.4687
2018-06-30T01:27:33.337Z,1010.4824
2018-06-30T01:27:44.067Z,1010.4289
2018-06-30T01:27:55.816Z,1010.4523
2018-06-30T01:28:07.576Z,1010.4625
2018-06-30T01:28:19.347Z,1010.4255
2018-06-30T01:28:30.101Z,1010.4792
2018-06-30T01:28:40.844Z,1010.4484
2018-06-30T01:28:52.586Z,1010.4584
2018-06-30T01:29:04.338Z,1010.4751
2018-06-30T01:29:16.090Z,1010.4935
2018-06-30T01:29:27.840Z,1010.4461
2018-06-30T01:29:39.579Z,1010.4584
2018-06-30T01:29:50.324Z,1010.4307
2018-06-30T01:30:02.096Z,1010.4651
2018-06-30T01:30:13.848Z,1010.4484
2018-06-30T01:30:25.603Z,1010.53
2018-06-30T01:30:37.354Z,1010.426
2018-06-30T01:30:49.099Z,1010.4238
2018-06-30T01:31:00.850Z,1010.4691
2018-06-30T01:31:12.600Z,1010.5042
2018-06-30T01:31:24.358Z,1010.4768
2018-06-30T01:31:36.113Z,1010.4818
2018-06-30T01:31:47.869Z,1010.4809
2018-06-30T01:31:59.621Z,1010.4953
2018-06-30T01:32:11.399Z,1010.4899
2018-06-30T01:32:22.136Z,1010.5133
2018-06-30T01:32:33.921Z,1010.4701
2018-06-30T01:32:45.707Z,1010.4845
2018-06-30T01:32:57.480Z,1010.4528
2018-06-30T01:33:09.225Z,1010.5029
2018-06-30T01:33:20.983Z,1010.4718
2018-06-30T01:33:31.727Z,1010.4745
2018-06-30T01:33:43.504Z,1010.4575
2018-06-30T01:33:54.246Z,1010.4661
2018-06-30T01:34:06.030Z,1010.4996
2018-06-30T01:34:17.782Z,1010.4996
2018-06-30T01:34:28.513Z,1010.4711
2018-06-30T01:34:40.275Z,1010.4968
2018-06-30T01:34:53.021Z,1010.5193
2018-06-30T01:35:04.764Z,1010.4735
2018-06-30T01:35:16.548Z,1010.4517
2018-06-30T01:35:28.304Z,1010.4584
2018-06-30T01:35:40.078Z,1010.4417
2018-06-30T01:35:50.815Z,1010.4768
2018-06-30T01:36:02.578Z,1010.431
2018-06-30T01:36:13.303Z,1010.4759
2018-06-30T01:36:25.044Z,1010.4885
2018-06-30T01:36:36.784Z,1010.449
2018-06-30T01:36:48.539Z,1010.4658
2018-06-30T01:37:00.277Z,1010.4678
2018-06-30T01:37:12.038Z,1010.4759
2018-06-30T01:37:23.787Z,1010.4926
2018-06-30T01:37:35.549Z,1010.4678
2018-06-30T01:37:47.359Z,1010.5164
2018-06-30T01:37:58.119Z,1010.4788
2018-06-30T01:38:09.889Z,1010.4721
2018-06-30T01:38:21.636Z,1010.4855
2018-06-30T01:38:33.396Z,1010.514
2018-06-30T01:38:45.173Z,1010.5207
2018-06-30T01:38:56.938Z,1010.4705
2018-06-30T01:39:08.722Z,1010.5133
2018-06-30T01:39:20.476Z,1010.504
2018-06-30T01:39:31.232Z,1010.5441
2018-06-30T01:39:41.977Z,1010.5307
2018-06-30T01:39:53.724Z,1010.5324
2018-06-30T01:40:05.472Z,1010.4989
2018-06-30T01:40:17.259Z,1010.504
2018-06-30T01:40:28.017Z,1010.5334
2018-06-30T01:40:39.759Z,1010.5093
2018-06-30T01:40:51.510Z,1010.5177
2018-06-30T01:41:03.254Z,1010.5123
2018-06-30T01:41:15.021Z,1010.4788
2018-06-30T01:41:26.782Z,1010.5043
2018-06-30T01:41:37.528Z,1010.4829
2018-06-30T01:41:49.288Z,1010.4909
2018-06-30T01:42:00.032Z,1010.4776
2018-06-30T01:42:11.774Z,1010.4642
2018-06-30T01:42:23.538Z,1010.4943
2018-06-30T01:42:35.301Z,1010.5348
2018-06-30T01:42:46.053Z,1010.4648
2018-06-30T01:42:57.810Z,1010.5153
2018-06-30T01:43:09.573Z,1010.517
2018-06-30T01:43:21.317Z,1010.5431
2018-06-30T01:43:33.078Z,1010.5017
2018-06-30T01:43:43.826Z,1010.5076
2018-06-30T01:43:56.116Z,1010.5
2018-06-30T01:44:06.858Z,1010.5173
2018-06-30T01:44:18.623Z,1010.5181
2018-06-30T01:44:29.369Z,1010.5592
2018-06-30T01:44:41.120Z,1010.5508
2018-06-30T01:44:52.884Z,1010.5374
2018-06-30T01:45:04.686Z,1010.5225
2018-06-30T01:45:16.442Z,1010.5158
2018-06-30T01:45:28.259Z,1010.5479
2018-06-30T01:45:39.968Z,1010.5301
2018-06-30T01:45:51.750Z,1010.5538
2018-06-30T01:46:03.494Z,1010.5427
2018-06-30T01:46:15.280Z,1010.5615
2018-06-30T01:46:27.051Z,1010.5023
2018-06-30T01:46:38.824Z,1010.5639
2018-06-30T01:46:50.573Z,1010.5324
2018-06-30T01:47:01.347Z,1010.5415
2018-06-30T01:47:12.082Z,1010.519
2018-06-30T01:47:21.836Z,1010.4993
2018-06-30T01:47:33.603Z,1010.5023
2018-06-30T01:47:45.370Z,1010.5311
2018-06-30T01:47:57.127Z,1010.5067
2018-06-30T01:48:08.887Z,1010.5
2018-06-30T01:48:20.625Z,1010.5026
2018-06-30T01:48:31.361Z,1010.522
2018-06-30T01:48:42.126Z,1010.502
2018-06-30T01:48:53.865Z,1010.5164
2018-06-30T01:49:05.606Z,1010.512
2018-06-30T01:49:17.368Z,1010.5087
2018-06-30T01:49:29.146Z,1010.4829
2018-06-30T01:49:40.932Z,1010.5014
2018-06-30T01:49:52.718Z,1010.4829
2018-06-30T01:50:03.465Z,1010.484
2018-06-30T01:50:15.248Z,1010.4826
2018-06-30T01:50:26.996Z,1010.5097
2018-06-30T01:50:38.771Z,1010.4692
2018-06-30T01:50:50.516Z,1010.4855
2018-06-30T01:51:02.274Z,1010.4806
2018-06-30T01:51:14.033Z,1010.4823
2018-06-30T01:51:25.780Z,1010.4866
2018-06-30T01:51:35.535Z,1010.4525
2018-06-30T01:51:47.306Z,1010.4893
2018-06-30T01:51:59.071Z,1010.4715
2018-06-30T01:52:09.866Z,1010.4738
2018-06-30T01:52:21.648Z,1010.4458
2018-06-30T01:52:33.398Z,1010.4792
2018-06-30T01:52:45.154Z,1010.4656
2018-06-30T01:52:56.901Z,1010.4291
2018-06-30T01:53:08.639Z,1010.425
2018-06-30T01:53:20.410Z,1010.4428
2018-06-30T01:53:32.164Z,1010.4852
2018-06-30T01:53:43.933Z,1010.4522
2018-06-30T01:53:55.691Z,1010.4287
2018-06-30T01:54:07.433Z,1010.4331
2018-06-30T01:54:19.182Z,1010.4722
2018-06-30T01:54:30.938Z,1010.4387
2018-06-30T01:54:41.683Z,1010.4656
2018-06-30T01:54:52.414Z,1010.4589
2018-06-30T01:55:03.164Z,1010.4348
2018-06-30T01:55:14.912Z,1010.4431
2018-06-30T01:55:26.669Z,1010.5043
2018-06-30T01:55:38.413Z,1010.4324
2018-06-30T01:55:50.169Z,1010.4501
2018-06-30T01:56:01.943Z,1010.4458
2018-06-30T01:56:13.713Z,1010.4562
2018-06-30T01:56:25.462Z,1010.4341
2018-06-30T01:56:37.201Z,1010.4414
2018-06-30T01:56:48.954Z,1010.4562
2018-06-30T01:57:01.529Z,1010.4492
2018-06-30T01:57:13.296Z,1010.4478
2018-06-30T01:57:25.065Z,1010.4495
2018-06-30T01:57:36.839Z,1010.43
2018-06-30T01:57:48.585Z,1010.4662
2018-06-30T01:57:59.353Z,1010.4879
2018-06-30T01:58:11.124Z,1010.4445
2018-06-30T01:58:22.881Z,1010.4578
2018-06-30T01:58:34.632Z,1010.4882
2018-06-30T01:58:46.362Z,1010.4682
2018-06-30T01:58:58.104Z,1010.5207
2018-06-30T01:59:09.850Z,1010.4866
2018-06-30T01:59:20.609Z,1010.4906
2018-06-30T01:59:31.368Z,1010.4876
2018-06-30T01:59:42.121Z,1010.4826
2018-06-30T01:59:53.915Z,1010.4615
2018-06-30T02:00:05.666Z,1010.4855
2018-06-30T02:00:17.436Z,1010.4531
2018-06-30T02:00:28.188Z,1010.4636
2018-06-30T02:00:39.936Z,1010.4769
2018-06-30T02:00:51.722Z,1010.506
2018-06-30T02:01:03.472Z,1010.5093
2018-06-30T02:01:15.219Z,1010.5026
2018-06-30T02:01:26.971Z,1010.5043
2018-06-30T02:01:36.720Z,1010.4735
2018-06-30T02:01:48.471Z,1010.4605
2018-06-30T02:02:00.229Z,1010.4935
2018-06-30T02:02:10.972Z,1010.4986
2018-06-30T02:02:21.719Z,1010.4806
2018-06-30T02:02:33.472Z,1010.4695
2018-06-30T02:02:44.226Z,1010.5036
2018-06-30T02:02:55.977Z,1010.4829
2018-06-30T02:03:07.731Z,1010.5114
2018-06-30T02:03:18.480Z,1010.431
2018-06-30T02:03:30.270Z,1010.4371
2018-06-30T02:03:41.007Z,1010.5016
2018-06-30T02:03:50.751Z,1010.4896
2018-06-30T02:04:01.505Z,1010.4564
2018-06-30T02:04:13.246Z,1010.4782
2018-06-30T02:04:24.022Z,1010.4899
2018-06-30T02:04:35.823Z,1010.4899
2018-06-30T02:04:47.568Z,1010.4648
2018-06-30T02:04:59.320Z,1010.4404
2018-06-30T02:05:11.081Z,1010.4317
2018-06-30T02:05:22.829Z,1010.4575
2018-06-30T02:05:34.576Z,1010.4554
2018-06-30T02:05:46.318Z,1010.4755
2018-06-30T02:05:57.072Z,1010.4331
2018-06-30T02:06:08.830Z,1010.5083
2018-06-30T02:06:20.580Z,1010.4397
2018-06-30T02:06:32.327Z,1010.4742
2018-06-30T02:06:44.074Z,1010.4709
2018-06-30T02:06:55.822Z,1010.4923
2018-06-30T02:07:07.577Z,1010.4651
2018-06-30T02:07:19.322Z,1010.4992
2018-06-30T02:07:31.089Z,1010.4841
2018-06-30T02:07:42.829Z,1010.4638
2018-06-30T02:07:54.596Z,1010.4748
2018-06-30T02:08:06.379Z,1010.4822
2018-06-30T02:08:18.146Z,1010.4815
2018-06-30T02:08:28.917Z,1010.51
2018-06-30T02:08:40.657Z,1010.4765
2018-06-30T02:08:52.452Z,1010.4906
2018-06-30T02:09:04.206Z,1010.4631
2018-06-30T02:09:13.966Z,1010.4642
2018-06-30T02:09:24.736Z,1010.4709
2018-06-30T02:09:35.517Z,1010.444
2018-06-30T02:09:47.275Z,1010.444
2018-06-30T02:09:59.024Z,1010.4742
2018-06-30T02:10:10.775Z,1010.4742
2018-06-30T02:10:22.547Z,1010.4659
2018-06-30T02:10:34.295Z,1010.4724
2018-06-30T02:10:46.084Z,1010.4404
2018-06-30T02:10:56.853Z,1010.4709
2018-06-30T02:11:08.591Z,1010.5006
2018-06-30T02:11:19.355Z,1010.4838
2018-06-30T02:11:30.104Z,1010.4621
2018-06-30T02:11:41.880Z,1010.4665
2018-06-30T02:11:53.631Z,1010.4698